sensor_id;sensor_type;location;lat;lon;timestamp;P1;durP1;ratioP1;P2;durP2;ratioP2
19089;SDS011;9677;50.656;13.064;2023-04-08T00:02:13;11.57;;;10.57;;
19089;SDS011;9677;50.656;13.064;2023-04-08T00:04:42;12.00;;;10.90;;
19089;SDS011;9677;50.656;13.064;2023-04-08T00:07:11;11.53;;;10.53;;
19089;SDS011;9677;50.656;13.064;2023-04-08T00:09:39;10.97;;;10.03;;
19089;SDS011;9677;50.656;13.064;2023-04-08T00:12:08;11.73;;;10.73;;
19089;SDS011;9677;50.656;13.064;2023-04-08T00:14:38;11.33;;;10.33;;
19089;SDS011;9677;50.656;13.064;2023-04-08T00:17:07;11.20;;;10.20;;
19089;SDS011;9677;50.656;13.064;2023-04-08T00:19:36;11.37;;;10.37;;
19089;SDS011;9677;50.656;13.064;2023-04-08T00:22:04;11.20;;;10.10;;
19089;SDS011;9677;50.656;13.064;2023-04-08T00:24:33;11.27;;;10.27;;
19089;SDS011;9677;50.656;13.064;2023-04-08T00:27:01;10.73;;;9.83;;
19089;SDS011;9677;50.656;13.064;2023-04-08T00:29:30;11.53;;;10.47;;
19089;SDS011;9677;50.656;13.064;2023-04-08T00:32:00;11.10;;;10.10;;
19089;SDS011;9677;50.656;13.064;2023-04-08T00:34:29;11.37;;;10.37;;
19089;SDS011;9677;50.656;13.064;2023-04-08T00:36:57;11.93;;;10.93;;
19089;SDS011;9677;50.656;13.064;2023-04-08T00:39:26;11.63;;;10.63;;
19089;SDS011;9677;50.656;13.064;2023-04-08T00:41:55;11.63;;;10.63;;
19089;SDS011;9677;50.656;13.064;2023-04-08T00:44:23;11.10;;;10.10;;
19089;SDS011;9677;50.656;13.064;2023-04-08T00:46:51;11.63;;;10.63;;
19089;SDS011;9677;50.656;13.064;2023-04-08T00:49:22;11.60;;;10.60;;
19089;SDS011;9677;50.656;13.064;2023-04-08T00:51:50;11.63;;;10.63;;
19089;SDS011;9677;50.656;13.064;2023-04-08T00:54:18;11.53;;;10.53;;
19089;SDS011;9677;50.656;13.064;2023-04-08T00:56:47;11.33;;;10.33;;
19089;SDS011;9677;50.656;13.064;2023-04-08T00:59:16;10.80;;;9.90;;
19089;SDS011;9677;50.656;13.064;2023-04-08T01:01:52;10.50;;;9.60;;
19089;SDS011;9677;50.656;13.064;2023-04-08T01:04:30;11.10;;;10.20;;
19089;SDS011;9677;50.656;13.064;2023-04-08T01:07:10;11.00;;;10.10;;
19089;SDS011;9677;50.656;13.064;2023-04-08T01:09:47;11.03;;;10.13;;
19089;SDS011;9677;50.656;13.064;2023-04-08T01:12:21;11.20;;;10.20;;
19089;SDS011;9677;50.656;13.064;2023-04-08T01:14:56;11.00;;;10.10;;
19089;SDS011;9677;50.656;13.064;2023-04-08T01:17:28;11.70;;;10.70;;
19089;SDS011;9677;50.656;13.064;2023-04-08T01:20:00;11.23;;;10.33;;
19089;SDS011;9677;50.656;13.064;2023-04-08T01:22:39;11.40;;;10.50;;
19089;SDS011;9677;50.656;13.064;2023-04-08T01:25:23;10.60;;;9.70;;
19089;SDS011;9677;50.656;13.064;2023-04-08T01:28:00;11.67;;;10.67;;
19089;SDS011;9677;50.656;13.064;2023-04-08T01:30:33;11.50;;;10.50;;
19089;SDS011;9677;50.656;13.064;2023-04-08T01:33:02;11.70;;;10.67;;
19089;SDS011;9677;50.656;13.064;2023-04-08T01:35:32;10.90;;;10.00;;
19089;SDS011;9677;50.656;13.064;2023-04-08T01:38:02;11.17;;;10.17;;
19089;SDS011;9677;50.656;13.064;2023-04-08T01:40:36;11.37;;;10.47;;
19089;SDS011;9677;50.656;13.064;2023-04-08T01:43:27;10.73;;;9.83;;
19089;SDS011;9677;50.656;13.064;2023-04-08T01:45:58;10.93;;;10.03;;
19089;SDS011;9677;50.656;13.064;2023-04-08T01:48:29;11.37;;;10.37;;
19089;SDS011;9677;50.656;13.064;2023-04-08T01:50:58;11.77;;;10.77;;
19089;SDS011;9677;50.656;13.064;2023-04-08T01:53:29;11.13;;;10.23;;
19089;SDS011;9677;50.656;13.064;2023-04-08T01:56:00;11.47;;;10.47;;
19089;SDS011;9677;50.656;13.064;2023-04-08T01:58:38;12.07;;;11.07;;
19089;SDS011;9677;50.656;13.064;2023-04-08T02:01:12;11.13;;;10.13;;
19089;SDS011;9677;50.656;13.064;2023-04-08T02:03:45;11.57;;;10.57;;
19089;SDS011;9677;50.656;13.064;2023-04-08T02:06:17;10.60;;;9.70;;
19089;SDS011;9677;50.656;13.064;2023-04-08T02:08:47;11.63;;;10.63;;
19089;SDS011;9677;50.656;13.064;2023-04-08T02:11:16;10.73;;;9.83;;
19089;SDS011;9677;50.656;13.064;2023-04-08T02:13:46;11.00;;;10.10;;
19089;SDS011;9677;50.656;13.064;2023-04-08T02:16:17;11.40;;;10.40;;
19089;SDS011;9677;50.656;13.064;2023-04-08T02:18:53;11.60;;;10.60;;
19089;SDS011;9677;50.656;13.064;2023-04-08T02:21:26;11.20;;;10.27;;
19089;SDS011;9677;50.656;13.064;2023-04-08T02:24:03;10.77;;;9.87;;
19089;SDS011;9677;50.656;13.064;2023-04-08T02:26:35;10.73;;;9.83;;
19089;SDS011;9677;50.656;13.064;2023-04-08T02:29:07;11.23;;;10.30;;
19089;SDS011;9677;50.656;13.064;2023-04-08T02:31:41;11.43;;;10.47;;
19089;SDS011;9677;50.656;13.064;2023-04-08T02:34:12;11.23;;;10.23;;
19089;SDS011;9677;50.656;13.064;2023-04-08T02:36:43;11.43;;;10.43;;
19089;SDS011;9677;50.656;13.064;2023-04-08T02:39:15;11.30;;;10.30;;
19089;SDS011;9677;50.656;13.064;2023-04-08T02:41:47;10.90;;;10.00;;
19089;SDS011;9677;50.656;13.064;2023-04-08T02:44:21;10.90;;;10.00;;
19089;SDS011;9677;50.656;13.064;2023-04-08T02:46:52;11.33;;;10.40;;
19089;SDS011;9677;50.656;13.064;2023-04-08T02:49:21;10.73;;;9.83;;
19089;SDS011;9677;50.656;13.064;2023-04-08T02:51:51;11.23;;;10.33;;
19089;SDS011;9677;50.656;13.064;2023-04-08T02:54:20;11.30;;;10.30;;
19089;SDS011;9677;50.656;13.064;2023-04-08T02:56:50;11.60;;;10.60;;
19089;SDS011;9677;50.656;13.064;2023-04-08T02:59:19;11.43;;;10.43;;
19089;SDS011;9677;50.656;13.064;2023-04-08T03:01:49;10.97;;;10.07;;
19089;SDS011;9677;50.656;13.064;2023-04-08T03:04:18;11.10;;;10.10;;
19089;SDS011;9677;50.656;13.064;2023-04-08T03:06:46;11.90;;;10.90;;
19089;SDS011;9677;50.656;13.064;2023-04-08T03:09:15;11.27;;;10.37;;
19089;SDS011;9677;50.656;13.064;2023-04-08T03:11:43;10.80;;;9.90;;
19089;SDS011;9677;50.656;13.064;2023-04-08T03:14:18;11.17;;;10.27;;
19089;SDS011;9677;50.656;13.064;2023-04-08T03:16:48;11.20;;;10.23;;
19089;SDS011;9677;50.656;13.064;2023-04-08T03:19:17;11.07;;;9.97;;
19089;SDS011;9677;50.656;13.064;2023-04-08T03:21:45;11.00;;;10.10;;
19089;SDS011;9677;50.656;13.064;2023-04-08T03:24:14;11.50;;;10.50;;
19089;SDS011;9677;50.656;13.064;2023-04-08T03:26:42;10.93;;;10.03;;
19089;SDS011;9677;50.656;13.064;2023-04-08T03:29:11;11.27;;;10.27;;
19089;SDS011;9677;50.656;13.064;2023-04-08T03:31:39;12.03;;;10.93;;
19089;SDS011;9677;50.656;13.064;2023-04-08T03:34:09;10.90;;;10.00;;
19089;SDS011;9677;50.656;13.064;2023-04-08T03:36:38;11.30;;;10.33;;
19089;SDS011;9677;50.656;13.064;2023-04-08T03:39:06;10.80;;;9.90;;
19089;SDS011;9677;50.656;13.064;2023-04-08T03:41:35;10.80;;;9.90;;
19089;SDS011;9677;50.656;13.064;2023-04-08T03:44:04;11.10;;;10.10;;
19089;SDS011;9677;50.656;13.064;2023-04-08T03:46:32;11.53;;;10.53;;
19089;SDS011;9677;50.656;13.064;2023-04-08T03:49:01;11.43;;;10.43;;
19089;SDS011;9677;50.656;13.064;2023-04-08T03:51:31;10.83;;;9.93;;
19089;SDS011;9677;50.656;13.064;2023-04-08T03:53:59;11.17;;;10.27;;
19089;SDS011;9677;50.656;13.064;2023-04-08T03:56:28;10.90;;;10.00;;
19089;SDS011;9677;50.656;13.064;2023-04-08T03:58:56;11.53;;;10.53;;
19089;SDS011;9677;50.656;13.064;2023-04-08T04:01:26;11.70;;;10.70;;
19089;SDS011;9677;50.656;13.064;2023-04-08T04:03:55;11.50;;;10.50;;
19089;SDS011;9677;50.656;13.064;2023-04-08T04:06:25;10.93;;;9.93;;
19089;SDS011;9677;50.656;13.064;2023-04-08T04:08:55;11.07;;;10.13;;
19089;SDS011;9677;50.656;13.064;2023-04-08T04:11:24;10.97;;;10.07;;
19089;SDS011;9677;50.656;13.064;2023-04-08T04:13:53;11.10;;;10.13;;
19089;SDS011;9677;50.656;13.064;2023-04-08T04:16:22;10.80;;;9.90;;
19089;SDS011;9677;50.656;13.064;2023-04-08T04:18:51;10.90;;;10.00;;
19089;SDS011;9677;50.656;13.064;2023-04-08T04:21:20;11.13;;;10.23;;
19089;SDS011;9677;50.656;13.064;2023-04-08T04:23:48;11.37;;;10.40;;
19089;SDS011;9677;50.656;13.064;2023-04-08T04:26:18;11.03;;;10.13;;
19089;SDS011;9677;50.656;13.064;2023-04-08T04:28:46;11.50;;;10.50;;
19089;SDS011;9677;50.656;13.064;2023-04-08T04:31:19;10.67;;;9.77;;
19089;SDS011;9677;50.656;13.064;2023-04-08T04:33:48;11.03;;;10.13;;
19089;SDS011;9677;50.656;13.064;2023-04-08T04:36:17;11.03;;;10.03;;
19089;SDS011;9677;50.656;13.064;2023-04-08T04:38:46;11.03;;;10.13;;
19089;SDS011;9677;50.656;13.064;2023-04-08T04:41:17;11.07;;;10.17;;
19089;SDS011;9677;50.656;13.064;2023-04-08T04:43:47;11.33;;;10.33;;
19089;SDS011;9677;50.656;13.064;2023-04-08T04:46:16;11.33;;;10.37;;
19089;SDS011;9677;50.656;13.064;2023-04-08T04:48:44;10.70;;;9.80;;
19089;SDS011;9677;50.656;13.064;2023-04-08T04:51:12;11.20;;;10.20;;
19089;SDS011;9677;50.656;13.064;2023-04-08T04:53:41;11.20;;;10.20;;
19089;SDS011;9677;50.656;13.064;2023-04-08T04:56:10;10.70;;;9.80;;
19089;SDS011;9677;50.656;13.064;2023-04-08T04:58:39;11.70;;;10.70;;
19089;SDS011;9677;50.656;13.064;2023-04-08T05:01:08;10.50;;;9.60;;
19089;SDS011;9677;50.656;13.064;2023-04-08T05:03:37;11.43;;;10.43;;
19089;SDS011;9677;50.656;13.064;2023-04-08T05:06:06;11.77;;;10.77;;
19089;SDS011;9677;50.656;13.064;2023-04-08T05:08:34;11.00;;;10.10;;
19089;SDS011;9677;50.656;13.064;2023-04-08T05:11:03;11.43;;;10.43;;
19089;SDS011;9677;50.656;13.064;2023-04-08T05:13:35;11.50;;;10.37;;
19089;SDS011;9677;50.656;13.064;2023-04-08T05:16:05;11.87;;;10.87;;
19089;SDS011;9677;50.656;13.064;2023-04-08T05:18:34;11.57;;;10.57;;
19089;SDS011;9677;50.656;13.064;2023-04-08T05:21:03;11.53;;;10.63;;
19089;SDS011;9677;50.656;13.064;2023-04-08T05:23:31;11.40;;;10.50;;
19089;SDS011;9677;50.656;13.064;2023-04-08T05:26:01;11.47;;;10.53;;
19089;SDS011;9677;50.656;13.064;2023-04-08T05:28:29;11.10;;;10.10;;
19089;SDS011;9677;50.656;13.064;2023-04-08T05:30:57;11.43;;;10.43;;
19089;SDS011;9677;50.656;13.064;2023-04-08T05:33:27;11.17;;;10.27;;
19089;SDS011;9677;50.656;13.064;2023-04-08T05:35:56;11.97;;;10.97;;
19089;SDS011;9677;50.656;13.064;2023-04-08T05:38:24;11.13;;;10.23;;
19089;SDS011;9677;50.656;13.064;2023-04-08T05:40:53;11.40;;;10.40;;
19089;SDS011;9677;50.656;13.064;2023-04-08T05:43:21;11.77;;;10.77;;
19089;SDS011;9677;50.656;13.064;2023-04-08T05:45:50;12.30;;;11.30;;
19089;SDS011;9677;50.656;13.064;2023-04-08T05:48:18;10.70;;;9.80;;
19089;SDS011;9677;50.656;13.064;2023-04-08T05:50:48;12.40;;;11.20;;
19089;SDS011;9677;50.656;13.064;2023-04-08T05:53:16;11.07;;;10.13;;
19089;SDS011;9677;50.656;13.064;2023-04-08T05:55:44;11.80;;;10.80;;
19089;SDS011;9677;50.656;13.064;2023-04-08T05:58:13;11.60;;;10.60;;
19089;SDS011;9677;50.656;13.064;2023-04-08T06:00:41;11.70;;;10.70;;
19089;SDS011;9677;50.656;13.064;2023-04-08T06:03:09;11.40;;;10.40;;
19089;SDS011;9677;50.656;13.064;2023-04-08T06:05:39;11.30;;;10.30;;
19089;SDS011;9677;50.656;13.064;2023-04-08T06:08:08;11.60;;;10.60;;
19089;SDS011;9677;50.656;13.064;2023-04-08T06:10:37;11.23;;;10.23;;
19089;SDS011;9677;50.656;13.064;2023-04-08T06:13:05;11.37;;;10.33;;
19089;SDS011;9677;50.656;13.064;2023-04-08T06:15:34;11.67;;;10.67;;
19089;SDS011;9677;50.656;13.064;2023-04-08T06:18:02;11.20;;;10.20;;
19089;SDS011;9677;50.656;13.064;2023-04-08T06:20:31;11.70;;;10.70;;
19089;SDS011;9677;50.656;13.064;2023-04-08T06:22:59;11.40;;;10.40;;
19089;SDS011;9677;50.656;13.064;2023-04-08T06:25:29;11.57;;;10.57;;
19089;SDS011;9677;50.656;13.064;2023-04-08T06:27:57;11.50;;;10.50;;
19089;SDS011;9677;50.656;13.064;2023-04-08T06:30:26;11.47;;;10.47;;
19089;SDS011;9677;50.656;13.064;2023-04-08T06:32:54;11.60;;;10.60;;
19089;SDS011;9677;50.656;13.064;2023-04-08T06:35:22;11.83;;;10.73;;
19089;SDS011;9677;50.656;13.064;2023-04-08T06:37:51;11.50;;;10.50;;
19089;SDS011;9677;50.656;13.064;2023-04-08T06:40:19;11.83;;;10.83;;
19089;SDS011;9677;50.656;13.064;2023-04-08T06:42:49;11.43;;;10.43;;
19089;SDS011;9677;50.656;13.064;2023-04-08T06:45:27;11.50;;;10.53;;
19089;SDS011;9677;50.656;13.064;2023-04-08T06:47:55;11.33;;;10.27;;
19089;SDS011;9677;50.656;13.064;2023-04-08T06:50:24;11.70;;;10.70;;
19089;SDS011;9677;50.656;13.064;2023-04-08T06:52:52;10.90;;;9.90;;
19089;SDS011;9677;50.656;13.064;2023-04-08T06:55:21;11.00;;;10.10;;
19089;SDS011;9677;50.656;13.064;2023-04-08T06:57:51;10.93;;;10.03;;
19089;SDS011;9677;50.656;13.064;2023-04-08T07:00:19;10.97;;;10.07;;
19089;SDS011;9677;50.656;13.064;2023-04-08T07:02:47;11.13;;;10.13;;
19089;SDS011;9677;50.656;13.064;2023-04-08T07:05:16;11.67;;;10.67;;
19089;SDS011;9677;50.656;13.064;2023-04-08T07:07:45;11.00;;;10.00;;
19089;SDS011;9677;50.656;13.064;2023-04-08T07:10:13;11.50;;;10.50;;
19089;SDS011;9677;50.656;13.064;2023-04-08T07:12:42;11.77;;;10.77;;
19089;SDS011;9677;50.656;13.064;2023-04-08T07:15:12;12.07;;;10.97;;
19089;SDS011;9677;50.656;13.064;2023-04-08T07:17:40;12.73;;;10.50;;
19089;SDS011;9677;50.656;13.064;2023-04-08T07:20:09;11.77;;;10.67;;
19089;SDS011;9677;50.656;13.064;2023-04-08T07:22:39;11.23;;;10.23;;
19089;SDS011;9677;50.656;13.064;2023-04-08T07:31:37;10.60;;;9.70;;
19089;SDS011;9677;50.656;13.064;2023-04-08T07:37:35;10.83;;;9.93;;
19089;SDS011;9677;50.656;13.064;2023-04-08T07:40:05;11.03;;;10.13;;
19089;SDS011;9677;50.656;13.064;2023-04-08T07:42:36;10.63;;;9.73;;
19089;SDS011;9677;50.656;13.064;2023-04-08T07:45:08;10.50;;;9.60;;
19089;SDS011;9677;50.656;13.064;2023-04-08T07:53:33;11.30;;;10.37;;
19089;SDS011;9677;50.656;13.064;2023-04-08T07:59:11;10.70;;;9.80;;
19089;SDS011;9677;50.656;13.064;2023-04-08T08:07:40;10.57;;;9.67;;
19089;SDS011;9677;50.656;13.064;2023-04-08T08:10:19;10.70;;;9.80;;
19089;SDS011;9677;50.656;13.064;2023-04-08T08:12:54;10.90;;;9.97;;
19089;SDS011;9677;50.656;13.064;2023-04-08T08:15:34;10.63;;;9.73;;
19089;SDS011;9677;50.656;13.064;2023-04-08T08:18:25;10.57;;;9.67;;
19089;SDS011;9677;50.656;13.064;2023-04-08T08:34:07;11.30;;;10.30;;
19089;SDS011;9677;50.656;13.064;2023-04-08T08:36:36;10.43;;;9.53;;
19089;SDS011;9677;50.656;13.064;2023-04-08T08:42:04;10.57;;;9.67;;
19089;SDS011;9677;50.656;13.064;2023-04-08T08:44:33;10.83;;;9.93;;
19089;SDS011;9677;50.656;13.064;2023-04-08T08:47:37;10.97;;;10.00;;
19089;SDS011;9677;50.656;13.064;2023-04-08T08:50:10;11.13;;;10.13;;
19089;SDS011;9677;50.656;13.064;2023-04-08T08:53:03;10.63;;;9.73;;
19089;SDS011;9677;50.656;13.064;2023-04-08T08:56:08;11.30;;;10.30;;
19089;SDS011;9677;50.656;13.064;2023-04-08T10:01:13;11.27;;;10.13;;
19089;SDS011;9677;50.656;13.064;2023-04-08T10:13:44;11.23;;;10.23;;
19089;SDS011;9677;50.656;13.064;2023-04-08T10:16:42;11.67;;;10.67;;
19089;SDS011;9677;50.656;13.064;2023-04-08T10:27:58;11.57;;;10.37;;
19089;SDS011;9677;50.656;13.064;2023-04-08T10:52:58;10.90;;;9.80;;
19089;SDS011;9677;50.656;13.064;2023-04-08T11:07:48;11.37;;;10.37;;
19089;SDS011;9677;50.656;13.064;2023-04-08T11:10:20;11.13;;;10.10;;
19089;SDS011;9677;50.656;13.064;2023-04-08T11:12:49;11.30;;;10.20;;
19089;SDS011;9677;50.656;13.064;2023-04-08T11:15:21;10.97;;;9.97;;
19089;SDS011;9677;50.656;13.064;2023-04-08T11:17:51;10.90;;;9.90;;
19089;SDS011;9677;50.656;13.064;2023-04-08T11:23:13;10.80;;;9.80;;
19089;SDS011;9677;50.656;13.064;2023-04-08T11:25:47;11.10;;;10.00;;
19089;SDS011;9677;50.656;13.064;2023-04-08T11:30:55;10.77;;;9.67;;
19089;SDS011;9677;50.656;13.064;2023-04-08T11:33:30;10.83;;;9.83;;
19089;SDS011;9677;50.656;13.064;2023-04-08T11:36:01;10.88;;;9.88;;
19089;SDS011;9677;50.656;13.064;2023-04-08T11:38:31;11.00;;;10.00;;
19089;SDS011;9677;50.656;13.064;2023-04-08T11:41:05;10.47;;;9.53;;
19089;SDS011;9677;50.656;13.064;2023-04-08T11:43:34;11.37;;;10.37;;
19089;SDS011;9677;50.656;13.064;2023-04-08T11:46:08;11.40;;;10.40;;
19089;SDS011;9677;50.656;13.064;2023-04-08T11:48:38;11.33;;;10.23;;
19089;SDS011;9677;50.656;13.064;2023-04-08T11:51:07;11.10;;;10.10;;
19089;SDS011;9677;50.656;13.064;2023-04-08T11:53:36;10.65;;;9.65;;
19089;SDS011;9677;50.656;13.064;2023-04-08T11:56:18;11.07;;;10.07;;
19089;SDS011;9677;50.656;13.064;2023-04-08T11:58:48;10.70;;;9.70;;
19089;SDS011;9677;50.656;13.064;2023-04-08T12:01:17;11.03;;;10.03;;
19089;SDS011;9677;50.656;13.064;2023-04-08T12:03:52;11.13;;;10.13;;
19089;SDS011;9677;50.656;13.064;2023-04-08T12:06:24;11.03;;;9.93;;
19089;SDS011;9677;50.656;13.064;2023-04-08T12:08:54;10.50;;;9.60;;
19089;SDS011;9677;50.656;13.064;2023-04-08T12:11:26;11.53;;;10.43;;
19089;SDS011;9677;50.656;13.064;2023-04-08T12:13:55;10.57;;;9.52;;
19089;SDS011;9677;50.656;13.064;2023-04-08T12:16:25;10.93;;;9.90;;
19089;SDS011;9677;50.656;13.064;2023-04-08T12:21:51;10.90;;;9.90;;
19089;SDS011;9677;50.656;13.064;2023-04-08T12:24:20;11.13;;;10.02;;
19089;SDS011;9677;50.656;13.064;2023-04-08T12:26:51;10.60;;;9.60;;
19089;SDS011;9677;50.656;13.064;2023-04-08T12:29:22;11.40;;;10.30;;
19089;SDS011;9677;50.656;13.064;2023-04-08T12:31:51;11.67;;;10.57;;
19089;SDS011;9677;50.656;13.064;2023-04-08T12:34:20;11.80;;;10.70;;
19089;SDS011;9677;50.656;13.064;2023-04-08T12:36:49;11.40;;;10.30;;
19089;SDS011;9677;50.656;13.064;2023-04-08T12:39:17;11.33;;;10.30;;
19089;SDS011;9677;50.656;13.064;2023-04-08T12:41:46;11.77;;;10.57;;
19089;SDS011;9677;50.656;13.064;2023-04-08T12:44:16;12.40;;;11.20;;
19089;SDS011;9677;50.656;13.064;2023-04-08T12:46:44;11.30;;;10.20;;
19089;SDS011;9677;50.656;13.064;2023-04-08T12:49:13;11.50;;;10.40;;
19089;SDS011;9677;50.656;13.064;2023-04-08T12:51:42;11.43;;;10.33;;
19089;SDS011;9677;50.656;13.064;2023-04-08T12:54:11;11.50;;;10.40;;
19089;SDS011;9677;50.656;13.064;2023-04-08T12:56:39;11.57;;;10.47;;
19089;SDS011;9677;50.656;13.064;2023-04-08T12:59:09;11.70;;;10.50;;
19089;SDS011;9677;50.656;13.064;2023-04-08T13:01:39;11.93;;;10.73;;
19089;SDS011;9677;50.656;13.064;2023-04-08T13:04:08;12.20;;;11.00;;
19089;SDS011;9677;50.656;13.064;2023-04-08T13:06:37;11.40;;;10.30;;
19089;SDS011;9677;50.656;13.064;2023-04-08T13:09:05;11.57;;;10.47;;
19089;SDS011;9677;50.656;13.064;2023-04-08T13:11:34;11.07;;;9.97;;
19089;SDS011;9677;50.656;13.064;2023-04-08T13:14:02;11.90;;;10.70;;
19089;SDS011;9677;50.656;13.064;2023-04-08T13:16:30;12.33;;;11.13;;
19089;SDS011;9677;50.656;13.064;2023-04-08T13:19:00;11.70;;;10.60;;
19089;SDS011;9677;50.656;13.064;2023-04-08T13:21:29;11.50;;;10.40;;
19089;SDS011;9677;50.656;13.064;2023-04-08T13:23:57;11.20;;;10.10;;
19089;SDS011;9677;50.656;13.064;2023-04-08T13:26:26;12.27;;;10.50;;
19089;SDS011;9677;50.656;13.064;2023-04-08T13:28:54;12.07;;;10.80;;
19089;SDS011;9677;50.656;13.064;2023-04-08T13:31:24;11.93;;;10.80;;
19089;SDS011;9677;50.656;13.064;2023-04-08T13:33:52;13.10;;;11.80;;
19089;SDS011;9677;50.656;13.064;2023-04-08T13:36:25;11.68;;;10.48;;
19089;SDS011;9677;50.656;13.064;2023-04-08T13:38:54;12.40;;;11.20;;
19089;SDS011;9677;50.656;13.064;2023-04-08T13:41:23;12.32;;;10.95;;
19089;SDS011;9677;50.656;13.064;2023-04-08T13:43:53;12.03;;;10.80;;
19089;SDS011;9677;50.656;13.064;2023-04-08T13:46:22;12.13;;;10.90;;
19089;SDS011;9677;50.656;13.064;2023-04-08T13:48:51;12.50;;;11.20;;
19089;SDS011;9677;50.656;13.064;2023-04-08T13:51:20;13.67;;;11.37;;
19089;SDS011;9677;50.656;13.064;2023-04-08T13:53:50;12.50;;;11.20;;
19089;SDS011;9677;50.656;13.064;2023-04-08T13:56:18;13.20;;;11.90;;
19089;SDS011;9677;50.656;13.064;2023-04-08T13:58:48;12.33;;;11.13;;
19089;SDS011;9677;50.656;13.064;2023-04-08T14:01:23;12.40;;;11.20;;
19089;SDS011;9677;50.656;13.064;2023-04-08T14:03:51;11.83;;;10.63;;
19089;SDS011;9677;50.656;13.064;2023-04-08T14:06:20;12.63;;;11.40;;
19089;SDS011;9677;50.656;13.064;2023-04-08T14:08:50;12.43;;;11.13;;
19089;SDS011;9677;50.656;13.064;2023-04-08T14:11:19;13.40;;;12.00;;
19089;SDS011;9677;50.656;13.064;2023-04-08T14:13:47;12.30;;;11.10;;
19089;SDS011;9677;50.656;13.064;2023-04-08T14:16:16;13.23;;;11.83;;
19089;SDS011;9677;50.656;13.064;2023-04-08T14:18:45;12.43;;;11.23;;
19089;SDS011;9677;50.656;13.064;2023-04-08T14:21:14;13.37;;;12.07;;
19089;SDS011;9677;50.656;13.064;2023-04-08T14:23:43;13.17;;;11.77;;
19089;SDS011;9677;50.656;13.064;2023-04-08T14:26:13;12.43;;;11.20;;
19089;SDS011;9677;50.656;13.064;2023-04-08T14:28:42;12.70;;;11.40;;
19089;SDS011;9677;50.656;13.064;2023-04-08T14:31:10;13.20;;;11.40;;
19089;SDS011;9677;50.656;13.064;2023-04-08T14:33:39;15.43;;;11.60;;
19089;SDS011;9677;50.656;13.064;2023-04-08T14:36:07;12.50;;;11.20;;
19089;SDS011;9677;50.656;13.064;2023-04-08T14:38:37;12.83;;;11.33;;
19089;SDS011;9677;50.656;13.064;2023-04-08T14:41:05;12.63;;;11.43;;
19089;SDS011;9677;50.656;13.064;2023-04-08T14:43:35;13.10;;;11.70;;
19089;SDS011;9677;50.656;13.064;2023-04-08T14:46:04;12.20;;;10.98;;
19089;SDS011;9677;50.656;13.064;2023-04-08T14:48:32;13.50;;;12.10;;
19089;SDS011;9677;50.656;13.064;2023-04-08T14:51:01;12.67;;;11.37;;
19089;SDS011;9677;50.656;13.064;2023-04-08T14:53:30;12.70;;;11.40;;
19089;SDS011;9677;50.656;13.064;2023-04-08T14:55:58;14.02;;;11.70;;
19089;SDS011;9677;50.656;13.064;2023-04-08T14:58:27;13.10;;;11.80;;
19089;SDS011;9677;50.656;13.064;2023-04-08T15:00:57;14.00;;;12.50;;
19089;SDS011;9677;50.656;13.064;2023-04-08T15:03:25;14.80;;;13.03;;
19089;SDS011;9677;50.656;13.064;2023-04-08T15:05:54;13.90;;;12.43;;
19089;SDS011;9677;50.656;13.064;2023-04-08T15:08:23;13.60;;;12.20;;
19089;SDS011;9677;50.656;13.064;2023-04-08T15:10:51;14.10;;;12.33;;
19089;SDS011;9677;50.656;13.064;2023-04-08T15:13:19;13.30;;;12.00;;
19089;SDS011;9677;50.656;13.064;2023-04-08T15:15:48;14.00;;;12.20;;
19089;SDS011;9677;50.656;13.064;2023-04-08T15:18:18;13.80;;;12.40;;
19089;SDS011;9677;50.656;13.064;2023-04-08T15:20:46;13.33;;;11.80;;
19089;SDS011;9677;50.656;13.064;2023-04-08T15:23:15;13.73;;;12.20;;
19089;SDS011;9677;50.656;13.064;2023-04-08T15:25:43;13.00;;;11.70;;
19089;SDS011;9677;50.656;13.064;2023-04-08T15:28:11;13.57;;;12.10;;
19089;SDS011;9677;50.656;13.064;2023-04-08T15:30:40;12.93;;;11.63;;
19089;SDS011;9677;50.656;13.064;2023-04-08T15:33:09;13.40;;;12.03;;
19089;SDS011;9677;50.656;13.064;2023-04-08T15:35:39;14.80;;;12.75;;
19089;SDS011;9677;50.656;13.064;2023-04-08T15:38:11;13.57;;;11.93;;
19089;SDS011;9677;50.656;13.064;2023-04-08T15:40:40;14.43;;;12.70;;
19089;SDS011;9677;50.656;13.064;2023-04-08T15:43:12;14.63;;;13.07;;
19089;SDS011;9677;50.656;13.064;2023-04-08T15:45:43;13.27;;;11.97;;
19089;SDS011;9677;50.656;13.064;2023-04-08T15:48:12;14.23;;;12.80;;
19089;SDS011;9677;50.656;13.064;2023-04-08T15:50:42;14.03;;;12.57;;
19089;SDS011;9677;50.656;13.064;2023-04-08T15:53:10;13.45;;;12.05;;
19089;SDS011;9677;50.656;13.064;2023-04-08T15:59:00;14.10;;;12.70;;
19089;SDS011;9677;50.656;13.064;2023-04-08T16:01:29;13.93;;;12.53;;
19089;SDS011;9677;50.656;13.064;2023-04-08T16:03:59;15.67;;;13.80;;
19089;SDS011;9677;50.656;13.064;2023-04-08T16:06:36;14.80;;;13.20;;
19089;SDS011;9677;50.656;13.064;2023-04-08T16:09:05;14.27;;;12.73;;
19089;SDS011;9677;50.656;13.064;2023-04-08T16:11:36;14.40;;;12.90;;
19089;SDS011;9677;50.656;13.064;2023-04-08T16:14:05;15.93;;;14.23;;
19089;SDS011;9677;50.656;13.064;2023-04-08T16:16:33;16.27;;;13.70;;
19089;SDS011;9677;50.656;13.064;2023-04-08T16:19:04;14.53;;;12.97;;
19089;SDS011;9677;50.656;13.064;2023-04-08T16:21:33;15.10;;;13.33;;
19089;SDS011;9677;50.656;13.064;2023-04-08T16:24:03;14.27;;;12.70;;
19089;SDS011;9677;50.656;13.064;2023-04-08T16:26:32;14.33;;;12.83;;
19089;SDS011;9677;50.656;13.064;2023-04-08T16:29:01;14.63;;;13.10;;
19089;SDS011;9677;50.656;13.064;2023-04-08T16:31:30;15.80;;;13.57;;
19089;SDS011;9677;50.656;13.064;2023-04-08T16:33:58;14.07;;;12.60;;
19089;SDS011;9677;50.656;13.064;2023-04-08T16:36:27;14.87;;;12.50;;
19089;SDS011;9677;50.656;13.064;2023-04-08T16:38:56;15.10;;;13.50;;
19089;SDS011;9677;50.656;13.064;2023-04-08T16:41:25;14.93;;;13.33;;
19089;SDS011;9677;50.656;13.064;2023-04-08T16:43:54;14.73;;;13.10;;
19089;SDS011;9677;50.656;13.064;2023-04-08T16:46:23;15.30;;;13.70;;
19089;SDS011;9677;50.656;13.064;2023-04-08T16:48:52;15.07;;;13.47;;
19089;SDS011;9677;50.656;13.064;2023-04-08T16:51:20;15.40;;;13.80;;
19089;SDS011;9677;50.656;13.064;2023-04-08T16:53:49;16.63;;;13.77;;
19089;SDS011;9677;50.656;13.064;2023-04-08T16:56:18;14.87;;;13.03;;
19089;SDS011;9677;50.656;13.064;2023-04-08T16:58:48;16.60;;;13.73;;
19089;SDS011;9677;50.656;13.064;2023-04-08T17:01:17;15.50;;;13.90;;
19089;SDS011;9677;50.656;13.064;2023-04-08T17:03:46;14.50;;;13.00;;
19089;SDS011;9677;50.656;13.064;2023-04-08T17:06:16;15.13;;;13.30;;
19089;SDS011;9677;50.656;13.064;2023-04-08T17:08:44;14.87;;;13.30;;
19089;SDS011;9677;50.656;13.064;2023-04-08T17:11:13;14.57;;;13.07;;
19089;SDS011;9677;50.656;13.064;2023-04-08T17:13:42;13.70;;;12.25;;
19089;SDS011;9677;50.656;13.064;2023-04-08T17:16:12;14.03;;;12.53;;
19089;SDS011;9677;50.656;13.064;2023-04-08T17:18:43;15.07;;;13.47;;
19089;SDS011;9677;50.656;13.064;2023-04-08T17:21:12;13.73;;;12.30;;
19089;SDS011;9677;50.656;13.064;2023-04-08T17:23:41;14.60;;;12.90;;
19089;SDS011;9677;50.656;13.064;2023-04-08T17:26:09;14.10;;;12.43;;
19089;SDS011;9677;50.656;13.064;2023-04-08T17:28:38;14.63;;;13.13;;
19089;SDS011;9677;50.656;13.064;2023-04-08T17:31:07;17.67;;;13.50;;